createdAt,value
2018-04-29T00:00:38.716Z,13.83
2018-04-29T00:03:06.906Z,13.72
2018-04-29T00:05:35.046Z,13.71
2018-04-29T00:08:03.181Z,13.67
2018-04-29T00:10:31.377Z,13.57
2018-04-29T00:12:59.550Z,13.52
2018-04-29T00:15:27.712Z,13.51
2018-04-29T00:17:55.832Z,13.47
2018-04-29T00:20:23.981Z,13.43
2018-04-29T00:22:52.105Z,13.36
2018-04-29T00:25:20.405Z,13.33
2018-04-29T00:27:48.689Z,13.31
2018-04-29T00:30:16.838Z,13.28
2018-04-29T00:32:45.046Z,13.26
2018-04-29T00:35:13.197Z,13.23
2018-04-29T00:37:41.320Z,13.22
2018-04-29T00:40:09.453Z,13.17
2018-04-29T00:42:37.589Z,13.14
2018-04-29T00:45:05.797Z,13.13
2018-04-29T00:47:33.914Z,13.10
2018-04-29T00:50:02.082Z,13.09
2018-04-29T00:52:30.239Z,13.05
2018-04-29T00:54:58.384Z,13.01
2018-04-29T00:57:26.522Z,12.99
2018-04-29T00:59:54.651Z,12.99
2018-04-29T01:02:22.808Z,13.00
2018-04-29T01:04:50.948Z,12.97
2018-04-29T01:07:19.096Z,12.92
2018-04-29T01:09:47.260Z,12.86
2018-04-29T01:12:15.405Z,12.87
2018-04-29T01:14:43.540Z,12.86
2018-04-29T01:17:11.689Z,12.84
2018-04-29T01:19:39.814Z,12.90
2018-04-29T01:22:07.944Z,13.10
2018-04-29T01:24:36.074Z,13.03
2018-04-29T01:27:04.204Z,12.96
2018-04-29T01:29:32.355Z,12.89
2018-04-29T01:32:00.506Z,12.81
2018-04-29T01:34:28.623Z,12.68
2018-04-29T01:36:56.769Z,12.62
2018-04-29T01:39:24.902Z,12.49
2018-04-29T01:41:53.050Z,12.43
2018-04-29T01:44:21.190Z,12.36
2018-04-29T01:46:49.318Z,12.36
2018-04-29T01:49:17.445Z,12.31
2018-04-29T01:51:45.626Z,12.34
2018-04-29T01:54:13.711Z,12.38
2018-04-29T01:56:41.859Z,12.33
2018-04-29T01:59:09.982Z,12.29
2018-04-29T02:01:38.110Z,12.28
2018-04-29T02:04:06.262Z,12.27
2018-04-29T02:06:34.409Z,12.27
2018-04-29T02:09:02.518Z,12.28
2018-04-29T02:11:30.667Z,12.27
2018-04-29T02:13:58.792Z,12.25
2018-04-29T02:16:26.925Z,12.21
2018-04-29T02:18:55.063Z,12.08
2018-04-29T02:21:23.766Z,12.04
2018-04-29T02:23:52.613Z,12.09
2018-04-29T02:26:20.759Z,12.17
2018-04-29T02:28:48.895Z,12.25
2018-04-29T02:31:17.034Z,12.24
2018-04-29T02:33:45.166Z,12.21
2018-04-29T02:36:13.291Z,12.12
2018-04-29T02:38:41.422Z,12.05
2018-04-29T02:41:09.547Z,12.02
2018-04-29T02:43:37.700Z,12.00
2018-04-29T02:46:05.818Z,11.98
2018-04-29T02:48:33.955Z,11.93
2018-04-29T02:51:02.071Z,11.90
2018-04-29T02:53:30.206Z,11.87
2018-04-29T02:55:58.352Z,11.85
2018-04-29T02:58:26.480Z,11.78
2018-04-29T03:00:54.633Z,11.77
2018-04-29T03:03:22.762Z,11.70
2018-04-29T03:05:50.890Z,11.73
2018-04-29T03:08:19.025Z,11.71
2018-04-29T03:10:47.163Z,11.72
2018-04-29T03:13:15.368Z,11.71
2018-04-29T03:15:43.502Z,11.70
2018-04-29T03:18:11.645Z,11.66
2018-04-29T03:20:39.767Z,11.64
2018-04-29T03:23:07.916Z,11.60
2018-04-29T03:25:36.050Z,11.57
2018-04-29T03:28:04.202Z,11.53
2018-04-29T03:30:32.388Z,11.49
2018-04-29T03:33:00.519Z,11.45
2018-04-29T03:35:28.643Z,11.42
2018-04-29T03:37:56.798Z,11.40
2018-04-29T03:40:24.919Z,11.38
2018-04-29T03:42:53.061Z,11.34
2018-04-29T03:45:21.189Z,11.34
2018-04-29T03:47:49.332Z,11.34
2018-04-29T03:50:17.466Z,11.32
2018-04-29T03:52:45.593Z,11.33
2018-04-29T03:55:13.738Z,11.35
2018-04-29T03:57:53.693Z,11.31
2018-04-29T04:00:33.490Z,11.23
2018-04-29T04:03:13.626Z,11.26
2018-04-29T04:05:41.762Z,11.31
2018-04-29T04:08:09.897Z,11.36
2018-04-29T04:10:38.031Z,11.43
2018-04-29T04:13:06.235Z,11.46
2018-04-29T04:15:34.354Z,11.51
2018-04-29T04:18:02.485Z,11.57
2018-04-29T04:20:30.623Z,11.66
2018-04-29T04:22:58.764Z,11.73
2018-04-29T04:25:26.912Z,11.79
2018-04-29T04:27:55.046Z,11.85
2018-04-29T04:30:23.205Z,11.87
2018-04-29T04:32:51.343Z,11.91
2018-04-29T04:35:19.495Z,11.98
2018-04-29T04:37:47.611Z,12.09
2018-04-29T04:40:15.807Z,12.18
2018-04-29T04:42:43.904Z,12.24
2018-04-29T04:45:12.043Z,12.29
2018-04-29T04:47:40.196Z,12.36
2018-04-29T04:50:08.337Z,12.48
2018-04-29T04:52:36.470Z,12.61
2018-04-29T04:55:04.612Z,12.71
2018-04-29T04:57:32.740Z,12.85
2018-04-29T05:00:00.864Z,12.98
2018-04-29T05:02:29.015Z,13.07
2018-04-29T05:04:57.135Z,13.07
2018-04-29T05:07:25.287Z,13.10
2018-04-29T05:09:53.405Z,13.18
2018-04-29T05:12:21.535Z,13.25
2018-04-29T05:14:49.667Z,13.36
2018-04-29T05:17:17.790Z,13.47
2018-04-29T05:19:45.928Z,13.58
2018-04-29T05:22:14.132Z,13.66
2018-04-29T05:24:42.195Z,13.65
2018-04-29T05:27:10.781Z,13.79
2018-04-29T05:29:38.933Z,13.91
2018-04-29T05:32:07.049Z,13.92
2018-04-29T05:34:35.175Z,14.04
2018-04-29T05:37:03.304Z,14.16
2018-04-29T05:39:31.442Z,14.22
2018-04-29T05:41:59.575Z,14.23
2018-04-29T05:44:27.706Z,14.39
2018-04-29T05:46:55.855Z,14.56
2018-04-29T05:49:23.988Z,14.61
2018-04-29T05:51:52.145Z,14.64
2018-04-29T05:54:20.289Z,14.74
2018-04-29T05:56:48.450Z,14.88
2018-04-29T05:59:16.600Z,15.01
2018-04-29T06:01:44.715Z,15.10
2018-04-29T06:04:12.863Z,15.23
2018-04-29T06:06:41.040Z,15.27
2018-04-29T06:09:09.872Z,15.17
2018-04-29T06:11:37.948Z,15.40
2018-04-29T06:14:06.144Z,15.46
2018-04-29T06:16:35.102Z,15.63
2018-04-29T06:19:03.232Z,15.75
2018-04-29T06:21:31.376Z,15.83
2018-04-29T06:23:59.514Z,15.95
2018-04-29T06:26:27.649Z,16.06
2018-04-29T06:28:55.793Z,16.20
2018-04-29T06:31:23.916Z,16.35
2018-04-29T06:33:52.071Z,16.46
2018-04-29T06:36:20.208Z,16.71
2018-04-29T06:38:48.350Z,16.87
2018-04-29T06:41:16.499Z,17.05
2018-04-29T06:43:44.629Z,17.20
2018-04-29T06:46:12.795Z,17.26
2018-04-29T06:48:40.945Z,17.33
2018-04-29T06:51:09.072Z,17.42
2018-04-29T06:53:37.229Z,17.52
2018-04-29T06:56:05.359Z,17.63
2018-04-29T06:58:33.480Z,17.67
2018-04-29T07:01:01.606Z,17.75
2018-04-29T07:03:29.780Z,17.79
2018-04-29T07:05:57.903Z,17.93
2018-04-29T07:08:26.053Z,18.13
2018-04-29T07:10:54.191Z,18.35
2018-04-29T07:13:22.327Z,18.48
2018-04-29T07:15:50.461Z,18.71
2018-04-29T07:18:18.743Z,18.84
2018-04-29T07:20:46.880Z,18.89
2018-04-29T07:23:15.031Z,18.93
2018-04-29T07:25:43.167Z,19.05
2018-04-29T07:28:11.342Z,19.20
2018-04-29T07:30:39.479Z,19.30
2018-04-29T07:33:07.608Z,19.47
2018-04-29T07:35:35.756Z,19.58
2018-04-29T07:38:03.887Z,19.54
2018-04-29T07:40:32.026Z,19.67
2018-04-29T07:43:00.174Z,19.63
2018-04-29T07:45:28.324Z,19.84
2018-04-29T07:47:56.484Z,20.07
2018-04-29T07:50:24.625Z,20.18
2018-04-29T07:52:52.751Z,20.31
2018-04-29T07:55:20.909Z,20.37
2018-04-29T07:57:49.037Z,20.42
2018-04-29T08:00:17.171Z,20.63
2018-04-29T08:02:45.316Z,20.67
2018-04-29T08:05:13.530Z,20.85
2018-04-29T08:07:41.680Z,21.04
2018-04-29T08:10:09.846Z,20.93
2018-04-29T08:12:37.969Z,20.99
2018-04-29T08:15:06.193Z,21.03
2018-04-29T08:17:34.313Z,21.05
2018-04-29T08:20:02.435Z,21.27
2018-04-29T08:22:30.563Z,21.53
2018-04-29T08:24:58.730Z,21.60
2018-04-29T08:27:26.887Z,21.79
2018-04-29T08:29:55.071Z,21.87
2018-04-29T08:32:23.204Z,22.00
2018-04-29T08:34:51.327Z,22.13
2018-04-29T08:37:19.447Z,22.07
2018-04-29T08:39:47.639Z,22.11
2018-04-29T08:42:15.763Z,22.31
2018-04-29T08:44:43.882Z,22.54
2018-04-29T08:47:12.081Z,22.77
2018-04-29T08:49:40.176Z,22.86
2018-04-29T08:52:08.290Z,22.97
2018-04-29T08:54:36.456Z,23.22
2018-04-29T08:57:04.607Z,23.29
2018-04-29T08:59:32.766Z,23.44
2018-04-29T09:02:00.924Z,23.60
2018-04-29T09:04:29.063Z,23.92
2018-04-29T09:06:57.229Z,23.81
2018-04-29T09:09:25.404Z,23.74
2018-04-29T09:11:53.540Z,23.97
2018-04-29T09:14:21.667Z,24.23
2018-04-29T09:16:49.836Z,24.37
2018-04-29T09:19:17.971Z,24.31
2018-04-29T09:21:46.099Z,24.55
2018-04-29T09:24:14.233Z,24.69
2018-04-29T09:26:42.527Z,24.77
2018-04-29T09:29:10.676Z,25.00
2018-04-29T09:31:38.800Z,25.11
2018-04-29T09:34:06.941Z,25.35
2018-04-29T09:36:35.071Z,25.46
2018-04-29T09:39:03.210Z,25.69
2018-04-29T09:41:32.319Z,25.66
2018-04-29T09:44:00.483Z,25.72
2018-04-29T09:46:28.611Z,25.98
2018-04-29T09:48:56.784Z,26.22
2018-04-29T09:51:24.940Z,26.29
2018-04-29T09:53:53.095Z,26.52
2018-04-29T09:56:21.239Z,26.69
2018-04-29T09:58:49.399Z,26.84
2018-04-29T10:01:25.011Z,27.16
2018-04-29T10:03:53.157Z,27.42
2018-04-29T10:06:21.307Z,27.72
2018-04-29T10:08:49.444Z,28.02
2018-04-29T10:11:17.559Z,28.11
2018-04-29T10:13:45.717Z,28.03
2018-04-29T10:18:48.344Z,27.99
2018-04-29T10:21:16.452Z,27.98
2018-04-29T10:23:44.585Z,27.80
2018-04-29T10:26:12.709Z,27.91
2018-04-29T10:28:40.839Z,27.93
2018-04-29T10:31:09.998Z,27.80
2018-04-29T10:33:38.124Z,27.85
2018-04-29T10:36:06.262Z,27.99
2018-04-29T10:38:34.395Z,28.01
2018-04-29T10:41:02.594Z,28.10
2018-04-29T10:43:30.675Z,28.19
2018-04-29T10:45:58.793Z,28.22
2018-04-29T10:48:26.914Z,28.48
2018-04-29T10:50:55.065Z,28.40
2018-04-29T10:53:23.277Z,28.66
2018-04-29T10:55:51.422Z,28.69
2018-04-29T10:58:19.556Z,28.57
2018-04-29T11:00:47.707Z,28.65
2018-04-29T11:03:15.839Z,28.68
2018-04-29T11:05:43.977Z,28.60
2018-04-29T11:08:12.119Z,28.52
2018-04-29T11:10:40.279Z,28.54
2018-04-29T11:13:08.400Z,28.52
2018-04-29T11:15:36.558Z,28.50
2018-04-29T11:18:05.394Z,28.58
2018-04-29T11:20:33.510Z,28.70
2018-04-29T11:23:01.659Z,29.08
2018-04-29T11:25:29.807Z,28.93
2018-04-29T11:27:57.941Z,28.65
2018-04-29T11:30:26.101Z,28.95
2018-04-29T11:32:54.227Z,28.78
2018-04-29T11:35:22.376Z,28.63
2018-04-29T11:37:50.505Z,28.76
2018-04-29T11:40:18.660Z,28.69
2018-04-29T11:42:46.803Z,28.93
2018-04-29T11:45:14.966Z,28.98
2018-04-29T11:47:43.115Z,28.97
2018-04-29T11:50:11.272Z,29.17
2018-04-29T11:52:39.401Z,28.83
2018-04-29T11:55:07.557Z,29.06
2018-04-29T11:57:35.677Z,29.07
2018-04-29T12:00:03.842Z,29.01
2018-04-29T12:02:31.959Z,29.17
2018-04-29T12:05:00.111Z,29.17
2018-04-29T12:07:28.282Z,29.11
2018-04-29T12:09:56.463Z,28.89
2018-04-29T12:12:24.554Z,29.06
2018-04-29T12:14:52.724Z,28.95
2018-04-29T12:17:20.845Z,28.89
2018-04-29T12:19:49.025Z,28.90
2018-04-29T12:22:17.159Z,29.00
2018-04-29T12:24:45.299Z,29.23
2018-04-29T12:27:13.433Z,29.39
2018-04-29T12:29:41.554Z,29.60
2018-04-29T12:32:09.701Z,29.47
2018-04-29T12:34:37.841Z,29.10
2018-04-29T12:37:06.079Z,29.08
2018-04-29T12:39:34.220Z,29.18
2018-04-29T12:42:02.362Z,29.28
2018-04-29T12:44:30.478Z,29.65
2018-04-29T12:46:58.611Z,29.60
2018-04-29T12:49:26.749Z,29.42
2018-04-29T12:51:54.889Z,29.46
2018-04-29T12:54:23.814Z,29.43
2018-04-29T12:56:51.941Z,29.38
2018-04-29T12:59:20.063Z,29.44
2018-04-29T13:01:48.189Z,29.47
2018-04-29T13:04:16.327Z,29.46
2018-04-29T13:06:44.877Z,29.64
2018-04-29T13:09:12.994Z,29.40
2018-04-29T13:11:41.133Z,29.62
2018-04-29T13:14:09.260Z,29.67
2018-04-29T13:16:37.375Z,29.67
2018-04-29T13:19:05.536Z,29.69
2018-04-29T13:21:33.652Z,29.85
2018-04-29T13:24:01.786Z,29.99
2018-04-29T13:26:29.908Z,29.92
2018-04-29T13:28:58.037Z,29.71
2018-04-29T13:31:26.166Z,29.54
2018-04-29T13:33:54.304Z,29.49
2018-04-29T13:36:22.430Z,29.55
2018-04-29T13:38:50.613Z,29.66
2018-04-29T13:41:18.732Z,29.75
2018-04-29T13:43:46.854Z,29.83
2018-04-29T13:46:15.026Z,29.95
2018-04-29T13:48:43.149Z,29.89
2018-04-29T13:51:11.279Z,29.80
2018-04-29T13:53:39.398Z,29.79
2018-04-29T13:56:07.520Z,29.61
2018-04-29T13:58:35.658Z,29.67
2018-04-29T14:01:03.794Z,29.69
2018-04-29T14:03:31.943Z,29.59
2018-04-29T14:06:00.097Z,29.69
2018-04-29T14:08:28.223Z,29.65
2018-04-29T14:10:56.366Z,29.85
2018-04-29T14:13:24.479Z,29.73
2018-04-29T14:15:52.608Z,29.67
2018-04-29T14:18:20.802Z,29.62
2018-04-29T14:20:48.944Z,29.64
2018-04-29T14:23:17.079Z,29.62
2018-04-29T14:25:45.207Z,29.44
2018-04-29T14:28:13.340Z,29.20
2018-04-29T14:30:41.463Z,29.30
2018-04-29T14:33:09.987Z,29.29
2018-04-29T14:35:38.137Z,29.42
2018-04-29T14:38:06.268Z,29.53
2018-04-29T14:40:34.529Z,29.61
2018-04-29T14:43:02.656Z,29.60
2018-04-29T14:45:31.028Z,29.49
2018-04-29T14:47:59.162Z,29.51
2018-04-29T14:50:27.308Z,29.51
2018-04-29T14:52:55.457Z,29.42
2018-04-29T14:55:23.638Z,29.30
2018-04-29T14:57:51.757Z,29.06
2018-04-29T15:00:19.951Z,28.88
2018-04-29T15:02:48.076Z,28.61
2018-04-29T15:05:16.215Z,28.50
2018-04-29T15:07:44.360Z,28.28
2018-04-29T15:10:12.666Z,28.12
2018-04-29T15:12:40.779Z,28.03
2018-04-29T15:15:08.909Z,27.93
2018-04-29T15:17:37.076Z,28.03
2018-04-29T15:20:05.221Z,28.17
2018-04-29T15:22:33.358Z,28.32
2018-04-29T15:25:01.536Z,28.40
2018-04-29T15:27:29.666Z,28.50
2018-04-29T15:29:57.798Z,28.60
2018-04-29T15:32:25.984Z,28.62
2018-04-29T15:34:54.520Z,28.69
2018-04-29T15:37:24.043Z,28.70
2018-04-29T15:39:52.171Z,28.82
2018-04-29T15:42:20.301Z,28.80
2018-04-29T15:44:48.410Z,28.74
2018-04-29T15:47:16.534Z,28.68
2018-04-29T15:49:44.663Z,28.73
2018-04-29T15:52:12.795Z,28.66
2018-04-29T15:54:40.909Z,28.60
2018-04-29T15:57:09.880Z,28.63
2018-04-29T15:59:38.011Z,28.61
2018-04-29T16:02:06.136Z,28.48
2018-04-29T16:04:34.257Z,28.31
2018-04-29T16:07:02.411Z,28.26
2018-04-29T16:09:30.551Z,28.08
2018-04-29T16:11:58.669Z,27.94
2018-04-29T16:14:26.833Z,27.92
2018-04-29T16:16:54.981Z,27.89
2018-04-29T16:19:23.105Z,27.85
2018-04-29T16:21:51.231Z,27.88
2018-04-29T16:24:19.424Z,27.86
2018-04-29T16:26:47.606Z,27.82
2018-04-29T16:29:15.742Z,27.78
2018-04-29T16:31:43.891Z,27.78
2018-04-29T16:34:12.068Z,27.72
2018-04-29T16:36:40.201Z,27.77
2018-04-29T16:39:08.354Z,27.73
2018-04-29T16:41:36.482Z,27.66
2018-04-29T16:44:04.685Z,27.53
2018-04-29T16:46:32.855Z,27.40
2018-04-29T16:49:01.034Z,27.46
2018-04-29T16:51:29.185Z,27.46
2018-04-29T16:53:57.339Z,27.41
2018-04-29T16:56:25.470Z,27.38
2018-04-29T16:58:53.597Z,27.33
2018-04-29T17:01:21.754Z,27.22
2018-04-29T17:03:49.867Z,27.13
2018-04-29T17:06:18.012Z,26.92
2018-04-29T17:08:46.180Z,26.78
2018-04-29T17:11:14.312Z,26.67
2018-04-29T17:13:42.443Z,26.60
2018-04-29T17:16:10.589Z,26.55
2018-04-29T17:18:38.761Z,26.60
2018-04-29T17:21:06.990Z,26.60
2018-04-29T17:23:35.104Z,26.47
2018-04-29T17:26:03.248Z,26.31
2018-04-29T17:28:31.363Z,26.18
2018-04-29T17:30:59.498Z,26.24
2018-04-29T17:33:27.648Z,26.18
2018-04-29T17:35:55.770Z,26.13
2018-04-29T17:38:23.902Z,25.92
2018-04-29T17:40:52.021Z,25.84
2018-04-29T17:43:20.157Z,25.78
2018-04-29T17:45:48.275Z,25.77
2018-04-29T17:48:16.413Z,25.73
2018-04-29T17:50:44.538Z,25.69
2018-04-29T17:53:12.748Z,25.59
2018-04-29T17:55:40.865Z,25.58
2018-04-29T17:58:09.003Z,25.49
2018-04-29T18:00:37.128Z,25.41
2018-04-29T18:03:05.313Z,25.30
2018-04-29T18:05:33.444Z,25.38
2018-04-29T18:08:01.611Z,25.35
2018-04-29T18:10:30.098Z,25.27
2018-04-29T18:12:58.274Z,25.43
2018-04-29T18:15:26.404Z,25.22
2018-04-29T18:17:54.531Z,25.19
2018-04-29T18:20:22.655Z,25.26
2018-04-29T18:22:50.825Z,25.17
2018-04-29T18:25:18.977Z,25.07
2018-04-29T18:27:47.206Z,25.03
2018-04-29T18:30:15.261Z,24.98
2018-04-29T18:32:43.805Z,24.98
2018-04-29T18:35:12.055Z,24.91
2018-04-29T18:37:40.222Z,24.80
2018-04-29T18:40:08.375Z,24.81
2018-04-29T18:42:36.505Z,24.73
2018-04-29T18:45:04.667Z,24.65
2018-04-29T18:47:32.805Z,24.61
2018-04-29T18:50:00.993Z,24.51
2018-04-29T18:52:29.139Z,24.49
2018-04-29T18:54:57.327Z,24.37
2018-04-29T18:57:25.500Z,24.25
2018-04-29T18:59:53.768Z,24.16
2018-04-29T19:02:21.984Z,23.99
2018-04-29T19:04:50.165Z,23.82
2018-04-29T19:07:18.342Z,23.62
2018-04-29T19:09:46.521Z,23.41
2018-04-29T19:12:14.719Z,23.22
2018-04-29T19:14:42.907Z,23.08
2018-04-29T19:17:11.097Z,22.93
2018-04-29T19:19:39.282Z,22.69
2018-04-29T19:22:07.415Z,22.51
2018-04-29T19:24:35.614Z,22.38
2018-04-29T19:27:03.810Z,22.31
2018-04-29T19:29:31.991Z,22.23
2018-04-29T19:32:00.182Z,22.11
2018-04-29T19:34:28.309Z,22.01
2018-04-29T19:36:56.443Z,21.96
2018-04-29T19:39:27.388Z,21.93
2018-04-29T19:41:55.502Z,21.95
2018-04-29T19:44:23.627Z,21.93
2018-04-29T19:46:51.748Z,21.88
2018-04-29T19:49:19.875Z,21.72
2018-04-29T19:51:48.565Z,21.67
2018-04-29T19:54:16.747Z,21.64
2018-04-29T19:56:44.865Z,21.53
2018-04-29T19:59:13.003Z,21.36
2018-04-29T20:01:41.131Z,21.24
2018-04-29T20:04:09.264Z,21.13
2018-04-29T20:06:37.378Z,21.01
2018-04-29T20:09:05.590Z,20.89
2018-04-29T20:11:33.844Z,20.87
2018-04-29T20:14:01.871Z,20.80
2018-04-29T20:16:29.991Z,20.70
2018-04-29T20:18:58.112Z,20.65
2018-04-29T20:21:26.243Z,20.60
2018-04-29T20:23:54.472Z,20.53
2018-04-29T20:26:22.504Z,20.45
2018-04-29T20:28:50.634Z,20.29
2018-04-29T20:31:18.762Z,20.15
2018-04-29T20:33:46.900Z,20.10
2018-04-29T20:36:15.030Z,20.06
2018-04-29T20:38:43.165Z,20.00
2018-04-29T20:41:11.298Z,19.93
2018-04-29T20:43:39.415Z,19.83
2018-04-29T20:46:07.550Z,19.71
2018-04-29T20:48:35.765Z,19.62
2018-04-29T20:51:04.189Z,19.48
2018-04-29T20:53:32.330Z,19.42
2018-04-29T20:56:00.456Z,19.37
2018-04-29T20:58:28.630Z,19.43
2018-04-29T21:00:56.772Z,19.36
2018-04-29T21:03:24.899Z,19.17
2018-04-29T21:05:53.023Z,19.10
2018-04-29T21:08:21.149Z,19.02
2018-04-29T21:10:49.265Z,18.97
2018-04-29T21:13:17.430Z,18.88
2018-04-29T21:15:45.543Z,18.89
2018-04-29T21:18:13.670Z,18.89
2018-04-29T21:20:41.800Z,18.90
2018-04-29T21:23:10.537Z,18.91
2018-04-29T21:25:38.662Z,18.65
2018-04-29T21:28:06.791Z,18.69
2018-04-29T21:30:35.526Z,18.74
2018-04-29T21:33:03.642Z,18.85
2018-04-29T21:35:31.782Z,18.97
2018-04-29T21:37:59.939Z,19.01
2018-04-29T21:40:28.035Z,18.99
2018-04-29T21:42:56.955Z,18.85
2018-04-29T21:45:25.093Z,18.69
2018-04-29T21:47:53.247Z,18.49
2018-04-29T21:50:21.371Z,18.23
2018-04-29T21:52:49.495Z,18.09
2018-04-29T21:55:17.607Z,18.01
2018-04-29T21:57:45.754Z,17.95
2018-04-29T22:00:13.881Z,17.92
2018-04-29T22:02:41.991Z,17.89
2018-04-29T22:05:10.108Z,17.95
2018-04-29T22:07:38.232Z,18.01
2018-04-29T22:10:06.372Z,17.95
2018-04-29T22:12:34.490Z,17.85
2018-04-29T22:15:02.634Z,17.70
2018-04-29T22:17:30.763Z,17.45
2018-04-29T22:19:59.144Z,17.37
2018-04-29T22:22:28.042Z,17.32
2018-04-29T22:24:56.170Z,17.27
2018-04-29T22:27:24.292Z,17.14
2018-04-29T22:29:52.422Z,17.07
2018-04-29T22:32:20.544Z,17.06
2018-04-29T22:34:48.665Z,17.06
2018-04-29T22:37:16.869Z,16.98
2018-04-29T22:39:44.910Z,16.98
2018-04-29T22:42:13.030Z,16.96
2018-04-29T22:44:41.152Z,17.15
2018-04-29T22:47:09.276Z,17.34
2018-04-29T22:49:37.414Z,17.50
2018-04-29T22:52:05.535Z,17.43
2018-04-29T22:54:33.755Z,17.24
2018-04-29T22:57:01.891Z,17.12
2018-04-29T22:59:30.021Z,17.06
2018-04-29T23:01:58.145Z,16.98
2018-04-29T23:04:26.273Z,16.85
2018-04-29T23:06:54.401Z,16.72
2018-04-29T23:09:22.547Z,16.55
2018-04-29T23:11:50.682Z,16.45
2018-04-29T23:14:18.806Z,16.41
2018-04-29T23:16:46.928Z,16.40
2018-04-29T23:19:15.059Z,16.38
2018-04-29T23:21:43.185Z,16.33
2018-04-29T23:24:11.311Z,16.35
2018-04-29T23:26:39.439Z,16.27
2018-04-29T23:29:07.606Z,16.32
2018-04-29T23:31:35.722Z,16.22
2018-04-29T23:34:03.876Z,16.18
2018-04-29T23:36:32.015Z,16.08
2018-04-29T23:39:00.148Z,15.99
2018-04-29T23:41:28.280Z,15.93
2018-04-29T23:43:56.415Z,15.90
2018-04-29T23:46:24.550Z,15.87
2018-04-29T23:48:52.810Z,15.72
2018-04-29T23:51:20.939Z,15.57
2018-04-29T23:53:49.072Z,15.49
2018-04-29T23:56:17.232Z,15.43
2018-04-29T23:58:45.380Z,15.38
